createdAt,value
2023-02-23T00:00:01.144Z,9.38
2023-02-23T00:03:04.546Z,9.43
2023-02-23T00:06:08.626Z,10.30
2023-02-23T00:09:24.575Z,9.15
2023-02-23T00:12:27.404Z,9.73
2023-02-23T00:15:29.940Z,9.85
2023-02-23T00:18:45.036Z,9.40
2023-02-23T00:21:47.459Z,10.03
2023-02-23T00:24:50.317Z,10.07
2023-02-23T00:27:52.913Z,10.15
2023-02-23T00:30:55.617Z,9.50
2023-02-23T00:34:04.223Z,8.40
2023-02-23T00:37:08.642Z,7.70
2023-02-23T00:40:16.593Z,8.27
2023-02-23T00:43:20.126Z,6.62
2023-02-23T00:46:27.090Z,7.32
2023-02-23T00:49:29.720Z,6.47
2023-02-23T00:52:32.947Z,6.83
2023-02-23T00:55:41.394Z,6.65
2023-02-23T00:58:45.115Z,7.65
2023-02-23T01:01:49.026Z,7.78
2023-02-23T01:04:52.598Z,7.12
2023-02-23T01:07:55.274Z,6.97
2023-02-23T01:10:58.819Z,7.50
2023-02-23T01:14:01.942Z,7.93
2023-02-23T01:17:04.358Z,7.20
2023-02-23T01:20:36.476Z,7.03
2023-02-23T01:23:38.795Z,6.73
2023-02-23T01:26:44.658Z,7.18
2023-02-23T01:29:47.008Z,6.90
2023-02-23T01:32:51.039Z,6.15
2023-02-23T01:36:01.859Z,5.47
2023-02-23T01:39:07.652Z,6.40
2023-02-23T01:42:13.811Z,6.25
2023-02-23T01:45:37.650Z,5.75
2023-02-23T01:48:40.672Z,6.62
2023-02-23T01:51:49.264Z,6.22
2023-02-23T01:54:55.831Z,6.37
2023-02-23T01:58:15.482Z,6.03
2023-02-23T02:01:19.063Z,5.95
2023-02-23T02:04:25.331Z,6.07
2023-02-23T02:07:30.954Z,5.12
2023-02-23T02:10:39.788Z,5.30
2023-02-23T02:13:42.494Z,5.60
2023-02-23T02:17:02.313Z,4.82
2023-02-23T02:20:26.594Z,5.43
2023-02-23T02:23:51.619Z,5.05
2023-02-23T02:27:13.622Z,5.17
2023-02-23T02:30:39.434Z,5.22
2023-02-23T02:33:58.393Z,5.93
2023-02-23T02:37:14.408Z,5.65
2023-02-23T02:40:28.308Z,5.72
2023-02-23T02:43:58.499Z,6.53
2023-02-23T02:47:10.191Z,5.75
2023-02-23T02:50:30.825Z,5.57
2023-02-23T02:53:43.876Z,6.00
2023-02-23T02:56:49.730Z,5.03
2023-02-23T03:00:11.176Z,6.00
2023-02-23T03:03:51.192Z,4.93
2023-02-23T03:07:20.322Z,5.12
2023-02-23T03:10:53.805Z,5.53
2023-02-23T03:14:41.194Z,4.82
2023-02-23T03:18:07.893Z,5.70
2023-02-23T03:21:47.977Z,5.45
2023-02-23T03:25:28.132Z,5.50
2023-02-23T03:28:54.102Z,5.50
2023-02-23T03:32:29.507Z,5.78
2023-02-23T03:36:27.071Z,6.07
2023-02-23T03:39:56.163Z,5.45
2023-02-23T03:43:19.946Z,6.28
2023-02-23T03:46:45.487Z,6.22
2023-02-23T03:50:09.005Z,5.47
2023-02-23T03:53:33.089Z,6.57
2023-02-23T03:56:58.162Z,6.30
2023-02-23T04:00:22.862Z,6.03
2023-02-23T04:03:46.250Z,5.95
2023-02-23T04:07:08.740Z,6.25
2023-02-23T04:10:30.209Z,5.30
2023-02-23T04:13:35.661Z,5.87
2023-02-23T04:16:39.913Z,5.80
2023-02-23T04:19:55.455Z,5.80
2023-02-23T04:22:58.547Z,5.05
2023-02-23T04:26:00.967Z,6.33
2023-02-23T04:29:03.647Z,6.50
2023-02-23T04:32:06.909Z,6.20
2023-02-23T04:35:10.004Z,6.85
2023-02-23T04:38:12.331Z,6.72
2023-02-23T04:41:14.982Z,6.50
2023-02-23T04:44:17.862Z,7.87
2023-02-23T04:47:20.613Z,7.28
2023-02-23T04:50:23.268Z,7.50
2023-02-23T04:53:27.153Z,7.55
2023-02-23T04:56:30.641Z,8.10
2023-02-23T04:59:33.458Z,7.12
2023-02-23T05:02:35.837Z,6.75
2023-02-23T05:05:39.757Z,7.18
2023-02-23T05:08:42.111Z,7.68
2023-02-23T05:11:45.052Z,6.97
2023-02-23T05:14:47.437Z,7.90
2023-02-23T05:17:50.134Z,8.27
2023-02-23T05:20:53.467Z,7.40
2023-02-23T05:23:57.307Z,7.30
2023-02-23T05:27:00.292Z,7.70
2023-02-23T05:30:03.224Z,7.03
2023-02-23T05:33:05.697Z,7.37
2023-02-23T05:36:18.814Z,7.95
2023-02-23T05:39:21.615Z,7.85
2023-02-23T05:42:24.346Z,6.87
2023-02-23T05:45:26.775Z,7.57
2023-02-23T05:48:29.535Z,6.87
2023-02-23T05:51:34.272Z,8.07
2023-02-23T05:54:36.913Z,7.93
2023-02-23T05:57:41.215Z,7.50
2023-02-23T06:00:43.800Z,7.85
2023-02-23T06:03:47.479Z,7.12
2023-02-23T06:06:50.169Z,8.57
2023-02-23T06:09:52.825Z,6.95
2023-02-23T06:12:55.269Z,6.50
2023-02-23T06:15:59.407Z,6.50
2023-02-23T06:19:01.753Z,7.80
2023-02-23T06:22:04.453Z,7.18
2023-02-23T06:25:12.658Z,7.03
2023-02-23T06:28:15.732Z,7.30
2023-02-23T06:31:18.361Z,7.62
2023-02-23T06:34:21.152Z,6.70
2023-02-23T06:37:23.910Z,7.40
2023-02-23T06:40:26.736Z,7.62
2023-02-23T06:43:29.645Z,7.23
2023-02-23T06:46:33.757Z,8.88
2023-02-23T06:49:37.021Z,8.32
2023-02-23T06:52:39.777Z,7.87
2023-02-23T06:55:42.168Z,8.30
2023-02-23T06:58:45.320Z,8.40
2023-02-23T07:01:47.697Z,8.05
2023-02-23T07:04:50.367Z,8.45
2023-02-23T07:07:52.740Z,8.43
2023-02-23T07:10:56.766Z,8.98
2023-02-23T07:13:59.517Z,8.90
2023-02-23T07:17:02.229Z,7.25
2023-02-23T07:20:05.070Z,8.27
2023-02-23T07:23:07.813Z,8.50
2023-02-23T07:26:10.196Z,8.25
2023-02-23T07:29:13.662Z,7.43
2023-02-23T07:32:16.120Z,8.20
2023-02-23T07:35:19.080Z,8.13
2023-02-23T07:38:21.438Z,9.02
2023-02-23T07:41:24.153Z,7.40
2023-02-23T07:44:26.679Z,7.83
2023-02-23T07:47:31.259Z,8.10
2023-02-23T07:50:33.552Z,7.62
2023-02-23T07:53:36.262Z,7.95
2023-02-23T07:56:38.666Z,8.38
2023-02-23T07:59:41.555Z,8.47
2023-02-23T08:02:44.195Z,8.50
2023-02-23T08:05:46.788Z,8.30
2023-02-23T08:08:49.356Z,7.90
2023-02-23T08:11:51.996Z,8.18
2023-02-23T08:14:54.395Z,7.67
2023-02-23T08:17:57.762Z,8.18
2023-02-23T08:21:01.857Z,8.00
2023-02-23T08:24:04.640Z,7.87
2023-02-23T08:27:07.054Z,8.70
2023-02-23T08:30:10.805Z,8.17
2023-02-23T08:33:13.227Z,8.00
2023-02-23T08:36:15.877Z,7.97
2023-02-23T08:39:18.929Z,8.38
2023-02-23T08:42:21.838Z,7.30
2023-02-23T08:45:24.172Z,7.53
2023-02-23T08:48:26.926Z,6.45
2023-02-23T08:51:29.296Z,8.63
2023-02-23T08:54:31.926Z,8.02
2023-02-23T08:57:35.612Z,7.55
2023-02-23T09:00:38.734Z,6.87
2023-02-23T09:03:41.111Z,7.07
2023-02-23T09:06:44.560Z,13.48
2023-02-23T09:09:46.932Z,7.15
2023-02-23T09:12:49.583Z,6.57
2023-02-23T09:15:51.914Z,6.87
2023-02-23T09:18:54.837Z,7.45
2023-02-23T09:21:57.204Z,7.82
2023-02-23T09:24:59.862Z,6.65
2023-02-23T09:28:02.287Z,7.60
2023-02-23T09:31:07.637Z,7.57
2023-02-23T09:34:10.685Z,6.80
2023-02-23T09:37:13.375Z,6.72
2023-02-23T09:40:19.336Z,7.35
2023-02-23T09:43:39.943Z,6.78
2023-02-23T09:46:53.714Z,6.90
2023-02-23T09:49:59.021Z,6.65
2023-02-23T09:53:23.653Z,7.40
2023-02-23T09:56:46.422Z,7.62
2023-02-23T09:59:48.844Z,6.85
2023-02-23T10:03:10.929Z,7.53
2023-02-23T10:06:18.019Z,7.30
2023-02-23T10:09:38.921Z,7.60
2023-02-23T10:12:47.598Z,6.15
2023-02-23T10:16:02.246Z,7.60
2023-02-23T10:19:20.158Z,6.97
2023-02-23T10:22:23.301Z,7.15
2023-02-23T10:25:29.932Z,6.28
2023-02-23T10:28:36.601Z,7.10
2023-02-23T10:31:48.119Z,6.95
2023-02-23T10:34:56.536Z,7.13
2023-02-23T10:38:01.995Z,6.97
2023-02-23T10:41:05.837Z,6.37
2023-02-23T10:44:21.875Z,7.47
2023-02-23T10:47:34.816Z,7.37
2023-02-23T10:50:39.305Z,6.57
2023-02-23T10:53:41.632Z,6.82
2023-02-23T10:56:47.127Z,7.10
2023-02-23T11:00:28.806Z,6.15
2023-02-23T11:04:04.337Z,7.22
2023-02-23T11:07:21.434Z,6.77
2023-02-23T11:10:27.517Z,7.68
2023-02-23T11:13:38.741Z,7.97
2023-02-23T11:16:41.778Z,7.40
2023-02-23T11:19:45.376Z,7.78
2023-02-23T11:22:49.172Z,6.67
2023-02-23T11:26:00.193Z,6.95
2023-02-23T11:29:19.640Z,6.65
2023-02-23T11:32:29.066Z,7.00
2023-02-23T11:35:32.549Z,6.78
2023-02-23T11:38:35.198Z,7.03
2023-02-23T11:41:37.952Z,6.60
2023-02-23T11:44:41.636Z,6.90
2023-02-23T11:47:50.805Z,6.60
2023-02-23T11:50:54.844Z,6.50
2023-02-23T11:53:58.876Z,6.43
2023-02-23T11:57:06.307Z,6.60
2023-02-23T12:00:12.949Z,6.45
2023-02-23T12:03:22.670Z,7.70
2023-02-23T12:06:37.125Z,6.53
2023-02-23T12:09:40.452Z,7.30
2023-02-23T12:13:13.098Z,6.45
2023-02-23T12:16:53.606Z,5.65
2023-02-23T12:20:25.264Z,6.65
2023-02-23T12:23:33.283Z,6.85
2023-02-23T12:27:06.826Z,5.33
2023-02-23T12:30:21.165Z,5.85
2023-02-23T12:33:48.570Z,7.07
2023-02-23T12:36:59.871Z,6.50
2023-02-23T12:40:36.825Z,6.10
2023-02-23T12:43:52.964Z,6.10
2023-02-23T12:47:03.669Z,6.37
2023-02-23T12:50:17.971Z,8.02
2023-02-23T12:53:36.929Z,7.35
2023-02-23T12:56:57.405Z,7.05
2023-02-23T13:00:32.091Z,6.50
2023-02-23T13:03:55.205Z,6.90
2023-02-23T13:07:22.814Z,6.87
2023-02-23T13:10:55.468Z,6.65
2023-02-23T13:14:14.408Z,6.40
2023-02-23T13:17:48.229Z,6.93
2023-02-23T13:20:58.948Z,7.85
2023-02-23T13:24:13.091Z,7.60
2023-02-23T13:27:27.302Z,7.05
2023-02-23T13:30:37.046Z,7.80
2023-02-23T13:33:44.264Z,6.63
2023-02-23T13:36:50.491Z,7.35
2023-02-23T13:40:31.119Z,6.87
2023-02-23T13:43:39.407Z,7.15
2023-02-23T13:47:05.635Z,6.47
2023-02-23T13:50:31.729Z,8.03
2023-02-23T13:53:39.926Z,6.97
2023-02-23T13:56:48.370Z,7.43
2023-02-23T13:59:51.520Z,7.90
2023-02-23T14:02:54.499Z,8.63
2023-02-23T14:06:00.415Z,7.93
2023-02-23T14:09:23.908Z,9.30
2023-02-23T14:12:39.907Z,7.95
2023-02-23T14:15:53.645Z,6.87
2023-02-23T14:19:30.769Z,7.90
2023-02-23T14:22:34.799Z,7.57
2023-02-23T14:25:38.007Z,8.13
2023-02-23T14:28:43.277Z,7.25
2023-02-23T14:32:04.920Z,8.35
2023-02-23T14:35:32.888Z,8.27
2023-02-23T14:38:47.982Z,7.93
2023-02-23T14:41:56.744Z,8.52
2023-02-23T14:45:05.895Z,8.05
2023-02-23T14:48:17.168Z,8.25
2023-02-23T14:51:32.296Z,8.25
2023-02-23T14:54:37.907Z,7.47
2023-02-23T14:57:44.117Z,6.62
2023-02-23T15:00:46.580Z,7.97
2023-02-23T15:04:12.857Z,7.43
2023-02-23T15:07:24.071Z,7.82
2023-02-23T15:10:37.207Z,8.10
2023-02-23T15:13:48.171Z,7.25
2023-02-23T15:16:51.425Z,8.30
2023-02-23T15:23:21.530Z,8.23
2023-02-23T15:26:33.545Z,6.97
2023-02-23T15:29:36.170Z,7.57
2023-02-23T15:32:38.828Z,8.13
2023-02-23T15:36:09.495Z,7.10
2023-02-23T15:39:17.538Z,7.18
2023-02-23T15:42:45.089Z,7.77
2023-02-23T15:45:53.576Z,6.70
2023-02-23T15:49:03.306Z,7.93
2023-02-23T15:52:19.040Z,7.40
2023-02-23T15:55:26.959Z,8.52
2023-02-23T15:58:32.596Z,7.60
2023-02-23T16:01:42.919Z,7.03
2023-02-23T16:04:52.752Z,6.97
2023-02-23T16:08:23.794Z,7.70
2023-02-23T16:11:30.992Z,6.62
2023-02-23T16:14:45.323Z,7.60
2023-02-23T16:18:11.704Z,7.65
2023-02-23T16:21:21.562Z,7.28
2023-02-23T16:24:27.863Z,6.72
2023-02-23T16:27:31.368Z,6.43
2023-02-23T16:30:43.572Z,7.43
2023-02-23T16:34:01.588Z,7.53
2023-02-23T16:37:18.042Z,7.18
2023-02-23T16:40:20.640Z,18.48
2023-02-23T16:43:23.766Z,8.00
2023-02-23T16:46:48.130Z,7.93
2023-02-23T16:49:51.592Z,7.28
2023-02-23T16:52:55.148Z,8.18
2023-02-23T16:56:00.999Z,7.95
2023-02-23T16:59:04.787Z,7.47
2023-02-23T17:02:13.796Z,8.50
2023-02-23T17:05:18.974Z,8.63
2023-02-23T17:08:21.971Z,8.02
2023-02-23T17:11:24.331Z,8.30
2023-02-23T17:14:28.334Z,7.93
2023-02-23T17:17:31.492Z,8.13
2023-02-23T17:20:34.460Z,8.30
2023-02-23T17:23:42.695Z,7.95
2023-02-23T17:26:45.768Z,7.65
2023-02-23T17:29:48.152Z,7.55
2023-02-23T17:32:52.321Z,7.60
2023-02-23T17:35:54.881Z,7.62
2023-02-23T17:39:00.942Z,8.10
2023-02-23T17:42:03.413Z,8.25
2023-02-23T17:45:08.018Z,7.55
2023-02-23T17:48:10.320Z,7.77
2023-02-23T17:51:16.699Z,6.87
2023-02-23T17:54:21.847Z,7.40
2023-02-23T17:57:25.509Z,7.60
2023-02-23T18:00:28.803Z,8.38
2023-02-23T18:03:34.190Z,7.37
2023-02-23T18:06:36.599Z,7.93
2023-02-23T18:09:39.622Z,8.15
2023-02-23T18:12:42.029Z,7.35
2023-02-23T18:15:51.912Z,8.27
2023-02-23T18:18:56.451Z,8.03
2023-02-23T18:21:59.231Z,8.38
2023-02-23T18:25:01.793Z,8.73
2023-02-23T18:28:04.712Z,9.73
2023-02-23T18:31:07.216Z,10.07
2023-02-23T18:34:10.180Z,9.77
2023-02-23T18:37:12.555Z,10.57
2023-02-23T18:40:15.641Z,10.27
2023-02-23T18:43:18.012Z,9.80
2023-02-23T18:46:20.778Z,9.23
2023-02-23T18:49:24.907Z,9.83
2023-02-23T18:52:27.738Z,10.45
2023-02-23T18:55:30.162Z,9.38
2023-02-23T18:58:33.788Z,9.95
2023-02-23T19:01:39.250Z,10.55
2023-02-23T19:04:41.930Z,9.70
2023-02-23T19:07:44.468Z,9.73
2023-02-23T19:10:48.502Z,11.57
2023-02-23T19:13:56.196Z,10.20
2023-02-23T19:16:58.910Z,10.25
2023-02-23T19:20:01.800Z,13.27
2023-02-23T19:23:05.432Z,11.60
2023-02-23T19:26:07.862Z,10.90
2023-02-23T19:29:10.520Z,14.32
2023-02-23T19:32:18.142Z,11.80
2023-02-23T19:35:21.133Z,13.00
2023-02-23T19:38:23.455Z,12.02
2023-02-23T19:41:26.195Z,14.80
2023-02-23T19:44:29.645Z,13.55
2023-02-23T19:47:32.406Z,14.10
2023-02-23T19:50:35.938Z,14.70
2023-02-23T19:53:38.858Z,14.05
2023-02-23T19:56:41.401Z,13.75
2023-02-23T19:59:44.061Z,12.90
2023-02-23T20:02:54.627Z,13.73
2023-02-23T20:05:57.752Z,14.53
2023-02-23T20:09:02.259Z,14.80
2023-02-23T20:12:05.238Z,14.05
2023-02-23T20:15:08.931Z,15.02
2023-02-23T20:18:13.518Z,14.80
2023-02-23T20:21:19.794Z,14.50
2023-02-23T20:24:22.830Z,16.05
2023-02-23T20:27:25.501Z,14.60
2023-02-23T20:30:28.237Z,14.90
2023-02-23T20:33:31.544Z,15.48
2023-02-23T20:36:34.445Z,14.23
2023-02-23T20:39:36.909Z,16.40
2023-02-23T20:42:41.137Z,15.40
2023-02-23T20:45:44.233Z,15.75
2023-02-23T20:48:49.224Z,14.98
2023-02-23T20:51:51.858Z,15.17
2023-02-23T20:54:54.453Z,13.98
2023-02-23T20:57:56.994Z,14.45
2023-02-23T21:01:04.822Z,14.80
2023-02-23T21:04:08.523Z,14.48
2023-02-23T21:07:13.522Z,14.67
2023-02-23T21:10:16.674Z,14.52
2023-02-23T21:13:22.187Z,14.65
2023-02-23T21:16:25.871Z,14.70
2023-02-23T21:19:28.646Z,14.35
2023-02-23T21:22:31.501Z,14.40
2023-02-23T21:25:34.193Z,13.70
2023-02-23T21:28:37.766Z,14.70
2023-02-23T21:31:44.779Z,13.77
2023-02-23T21:34:47.406Z,13.30
2023-02-23T21:37:51.147Z,13.10
2023-02-23T21:40:53.610Z,14.23
2023-02-23T21:43:56.465Z,12.63
2023-02-23T21:46:58.926Z,13.32
2023-02-23T21:50:02.688Z,13.32
2023-02-23T21:53:05.493Z,13.13
2023-02-23T21:56:16.283Z,13.10
2023-02-23T21:59:19.628Z,13.32
2023-02-23T22:02:30.477Z,12.73
2023-02-23T22:05:34.690Z,13.90
2023-02-23T22:08:38.658Z,12.30
2023-02-23T22:11:47.005Z,11.75
2023-02-23T22:14:49.362Z,12.02
2023-02-23T22:17:51.976Z,12.43
2023-02-23T22:21:03.975Z,12.63
2023-02-23T22:24:07.789Z,12.47
2023-02-23T22:27:10.450Z,12.15
2023-02-23T22:30:15.002Z,12.30
2023-02-23T22:33:19.706Z,12.57
2023-02-23T22:36:23.043Z,11.63
2023-02-23T22:39:25.441Z,11.37
2023-02-23T22:42:35.339Z,11.48
2023-02-23T22:45:38.647Z,10.85
2023-02-23T22:48:45.308Z,11.63
2023-02-23T22:51:47.767Z,10.82
2023-02-23T22:54:51.223Z,11.53
2023-02-23T22:57:55.662Z,11.48
2023-02-23T23:01:09.740Z,10.35
2023-02-23T23:04:12.504Z,9.98
2023-02-23T23:07:15.164Z,11.10
2023-02-23T23:10:18.424Z,11.27
2023-02-23T23:13:21.093Z,12.13
2023-02-23T23:16:32.177Z,11.57
2023-02-23T23:19:39.059Z,10.05
2023-02-23T23:22:41.645Z,11.60
2023-02-23T23:25:47.687Z,10.97
2023-02-23T23:28:52.992Z,11.77
2023-02-23T23:31:58.780Z,12.50
2023-02-23T23:35:01.471Z,12.50
2023-02-23T23:38:06.160Z,12.32
2023-02-23T23:41:13.484Z,11.37
2023-02-23T23:44:18.118Z,11.95
2023-02-23T23:47:20.447Z,10.93
2023-02-23T23:50:26.953Z,11.85
2023-02-23T23:53:29.518Z,11.48
2023-02-23T23:56:37.444Z,11.57
2023-02-23T23:59:45.895Z,12.55
